Time;durP1;ratioP1;P1;durP2;ratioP2;P2;SDS_P1;SDS_P2;PMS_P1;PMS_P2;Temp;Humidity;BMP_temperature;BMP_pressure;BME280_temperature;BME280_humidity;BME280_pressure;Samples;Min_cycle;Max_cycle;Signal;HPM_P1;HPM_P2
2022/05/18 00:01:35;;;;;;;7.75;3.78;;;16.70;99.90;;;;;;5056303;28;20076;-59
2022/05/18 00:04:02;;;;;;;6.95;3.75;;;17.80;99.90;;;;;;5057281;28;20405;-59
2022/05/18 00:06:28;;;;;;;7.45;3.75;;;16.70;99.90;;;;;;5057318;28;20040;-59
2022/05/18 00:08:54;;;;;;;10.43;3.90;;;16.80;99.90;;;;;;5056752;28;20433;-59
2022/05/18 00:11:20;;;;;;;7.18;3.95;;;17.40;99.90;;;;;;5056063;28;20409;-57
2022/05/18 00:13:49;;;;;;;8.95;4.10;;;16.80;99.90;;;;;;5054303;28;20040;-58
2022/05/18 00:16:16;;;;;;;10.43;4.47;;;16.80;99.90;;;;;;5056867;28;20405;-59
2022/05/18 00:18:42;;;;;;;7.63;3.60;;;16.70;99.90;;;;;;5055646;28;20414;-59
2022/05/18 00:21:08;;;;;;;9.93;4.30;;;16.50;99.90;;;;;;5055738;28;20043;-58
2022/05/18 00:23:35;;;;;;;8.32;4.43;;;16.70;99.90;;;;;;5054682;28;20536;-59
2022/05/18 00:26:01;;;;;;;9.23;4.18;;;16.90;99.90;;;;;;5055288;28;20501;-59
2022/05/18 00:28:27;;;;;;;8.05;4.68;;;17.30;99.90;;;;;;5055691;28;20072;-59
2022/05/18 00:30:53;;;;;;;8.23;4.47;;;16.50;99.90;;;;;;5053018;28;20127;-59
2022/05/18 00:33:19;;;;;;;8.30;4.43;;;17.30;99.90;;;;;;5054802;28;20543;-59
2022/05/18 00:35:45;;;;;;;7.38;4.13;;;16.70;99.90;;;;;;5054532;28;20485;-59
2022/05/18 00:38:11;;;;;;;10.43;4.40;;;16.40;99.90;;;;;;5054850;28;20153;-59
2022/05/18 00:40:42;;;;;;;8.13;4.72;;;16.30;99.90;;;;;;5054265;28;20029;-59
2022/05/18 00:43:39;;;;;;;8.32;4.57;;;17.30;99.90;;;;;;5085859;28;20785;-59
2022/05/18 00:46:09;;;;;;;7.75;4.72;;;16.50;99.90;;;;;;5053310;28;20386;-59
2022/05/18 00:48:37;;;;;;;9.25;4.65;;;16.40;99.90;;;;;;5053618;28;20048;-59
2022/05/18 00:51:06;;;;;;;8.23;4.50;;;16.50;99.90;;;;;;5053177;28;20043;-59
2022/05/18 00:53:45;;;;;;;12.70;5.45;;;16.30;99.90;;;;;;5053022;28;20040;-59
2022/05/18 00:56:15;;;;;;;8.38;4.50;;;16.50;99.90;;;;;;5053891;28;20070;-59
2022/05/18 00:58:53;;;;;;;12.23;5.30;;;16.70;99.90;;;;;;5052991;28;20101;-59
2022/05/18 01:01:19;;;;;;;11.50;5.43;;;16.20;99.90;;;;;;5053886;28;20049;-58
2022/05/18 01:03:49;;;;;;;8.73;5.53;;;17.80;99.90;;;;;;5052631;28;20674;-59
2022/05/18 01:06:23;;;;;;;13.40;5.82;;;16.40;99.90;;;;;;5053620;28;20032;-59
2022/05/18 01:08:58;;;;;;;9.27;4.95;;;16.30;99.90;;;;;;5053103;28;20055;-58
2022/05/18 01:11:23;;;;;;;8.65;5.20;;;16.10;99.90;;;;;;5052902;28;20097;-59
2022/05/18 01:13:49;;;;;;;8.88;4.93;;;16.10;99.90;;;;;;5052535;28;20048;-59
2022/05/18 01:16:15;;;;;;;8.68;4.90;;;17.10;99.90;;;;;;5053565;28;20037;-59
2022/05/18 01:18:42;;;;;;;10.25;5.00;;;18.20;99.90;;;;;;5051277;28;20378;-59
2022/05/18 01:21:08;;;;;;;8.07;5.00;;;15.90;99.90;;;;;;5054231;28;20045;-59
2022/05/18 01:24:14;;;;;;;10.68;5.35;;;16.70;99.90;;;;;;5053936;28;20327;-59
2022/05/18 01:26:44;;;;;;;10.15;5.95;;;15.90;99.90;;;;;;5050280;28;20052;-59
2022/05/18 01:29:11;;;;;;;9.95;5.00;;;16.10;99.90;;;;;;5050579;28;20543;-59
2022/05/18 01:31:50;;;;;;;11.82;5.95;;;16.00;99.90;;;;;;5050393;28;20053;-59
2022/05/18 01:34:20;;;;;;;8.82;4.72;;;16.00;99.90;;;;;;5050790;28;20143;-59
2022/05/18 01:36:46;;;;;;;10.43;5.50;;;15.90;99.90;;;;;;5050338;28;20056;-58
2022/05/18 01:39:28;;;;;;;10.48;5.38;;;16.10;99.90;;;;;;5049502;28;20044;-59
2022/05/18 01:42:55;;;;;;;10.00;5.22;;;15.80;99.90;;;;;;5051378;28;20071;-59
2022/05/18 01:45:21;;;;;;;10.15;5.60;;;15.80;99.90;;;;;;5006818;28;20458;-58
2022/05/18 01:47:48;;;;;;;11.93;5.15;;;16.70;99.90;;;;;;5015876;28;20075;-59
2022/05/18 01:50:19;;;;;;;10.00;5.07;;;16.00;99.90;;;;;;5014454;28;20065;-59
2022/05/18 01:52:44;;;;;;;10.02;5.43;;;15.90;99.90;;;;;;5016389;28;20049;-59
2022/05/18 01:55:10;;;;;;;11.40;5.97;;;17.60;99.90;;;;;;5018003;28;20077;-59
2022/05/18 01:57:36;;;;;;;8.93;5.40;;;15.50;99.90;;;;;;5020770;28;20785;-59
2022/05/18 02:00:06;;;;;;;11.60;5.45;;;15.50;99.90;;;;;;5016664;28;20557;-59
2022/05/18 02:02:32;;;;;;;10.45;5.25;;;15.70;99.90;;;;;;4996909;28;20112;-58
2022/05/18 02:04:57;;;;;;;9.32;5.00;;;16.80;99.90;;;;;;4968112;28;21468;-59
2022/05/18 02:07:25;;;;;;;9.80;5.53;;;17.60;99.90;;;;;;4990494;28;20038;-59
2022/05/18 02:09:51;;;;;;;10.65;5.70;;;15.40;99.90;;;;;;4989107;28;20100;-59
2022/05/18 02:12:17;;;;;;;8.70;5.18;;;15.70;99.90;;;;;;4989717;28;20050;-59
2022/05/18 02:14:43;;;;;;;8.20;5.55;;;15.60;99.90;;;;;;4989346;28;20133;-59
2022/05/18 02:17:08;;;;;;;10.70;5.90;;;15.30;99.90;;;;;;5046923;28;20402;-59
2022/05/18 02:19:34;;;;;;;8.50;5.70;;;15.30;99.90;;;;;;5052700;28;20052;-59
2022/05/18 02:22:00;;;;;;;9.35;5.35;;;15.40;99.90;;;;;;5052601;28;20048;-59
2022/05/18 02:24:26;;;;;;;9.07;6.50;;;15.10;99.90;;;;;;5053682;28;20131;-59
2022/05/18 02:26:51;;;;;;;10.80;5.63;;;15.10;99.90;;;;;;5052711;28;20040;-59
2022/05/18 02:29:17;;;;;;;10.93;6.60;;;15.10;99.90;;;;;;5051673;28;20060;-59
2022/05/18 02:31:43;;;;;;;15.82;6.20;;;14.80;99.90;;;;;;5052067;28;20055;-59
2022/05/18 02:34:08;;;;;;;15.05;6.60;;;14.80;99.90;;;;;;5053840;28;20044;-59
2022/05/18 02:36:34;;;;;;;12.07;6.55;;;14.70;99.90;;;;;;5052443;28;20469;-58
2022/05/18 02:39:00;;;;;;;9.40;6.05;;;14.80;99.90;;;;;;5034167;28;20133;-59
2022/05/18 02:41:25;;;;;;;10.10;6.18;;;14.60;99.90;;;;;;5051109;28;20040;-59
2022/05/18 02:43:52;;;;;;;9.30;6.30;;;14.60;99.90;;;;;;5053813;28;20040;-59
2022/05/18 02:46:20;;;;;;;11.40;6.10;;;14.60;99.90;;;;;;5053421;28;20071;-59
2022/05/18 02:48:47;;;;;;;9.68;6.32;;;14.50;99.90;;;;;;5053072;28;20040;-59
2022/05/18 02:51:15;;;;;;;10.25;5.82;;;14.60;99.90;;;;;;5051840;28;20071;-59
2022/05/18 02:53:41;;;;;;;10.13;6.30;;;14.70;99.90;;;;;;5053393;28;20768;-59
2022/05/18 02:56:16;;;;;;;10.15;6.03;;;14.80;99.90;;;;;;5050842;28;20048;-59
2022/05/18 02:58:47;;;;;;;10.52;6.57;;;14.60;99.90;;;;;;5051318;28;20102;-59
2022/05/18 03:01:18;;;;;;;11.52;6.30;;;14.60;99.90;;;;;;5052130;28;20036;-59
2022/05/18 03:03:45;;;;;;;13.57;6.68;;;14.70;99.90;;;;;;5050830;28;20059;-59
2022/05/18 03:06:13;;;;;;;13.48;6.65;;;14.70;99.90;;;;;;5051848;28;20052;-59
2022/05/18 03:08:41;;;;;;;8.88;6.03;;;16.20;99.90;;;;;;5050673;28;20048;-60
2022/05/18 03:11:08;;;;;;;10.82;5.95;;;14.50;99.90;;;;;;5052159;28;20519;-60
2022/05/18 03:13:34;;;;;;;11.60;6.32;;;14.60;99.90;;;;;;5055021;28;20109;-59
2022/05/18 03:16:00;;;;;;;12.63;6.63;;;14.30;99.90;;;;;;5056053;28;20044;-60
2022/05/18 03:18:26;;;;;;;13.88;6.85;;;16.00;99.90;;;;;;5055479;28;20052;-61
2022/05/18 03:23:39;;;;;;;11.45;6.05;;;14.40;99.90;;;;;;5056379;28;20631;-60
2022/05/18 03:26:09;;;;;;;12.02;7.05;;;14.60;99.90;;;;;;5054706;28;20048;-61
2022/05/18 03:28:36;;;;;;;10.25;6.32;;;15.60;99.90;;;;;;5055020;28;20551;-60
2022/05/18 03:31:03;;;;;;;10.73;6.63;;;14.40;99.90;;;;;;5056843;28;20146;-60
2022/05/18 03:33:29;;;;;;;13.30;6.65;;;14.50;99.90;;;;;;5055852;28;20094;-60
2022/05/18 03:35:55;;;;;;;9.82;6.38;;;14.50;99.90;;;;;;5055460;28;20691;-60
2022/05/18 03:38:21;;;;;;;13.88;7.55;;;14.40;99.90;;;;;;5056061;28;20045;-60
2022/05/18 03:40:48;;;;;;;10.20;6.43;;;14.40;99.90;;;;;;5056006;28;21250;-60
2022/05/18 03:43:14;;;;;;;11.38;6.25;;;15.40;99.90;;;;;;5057125;28;20041;-60
2022/05/18 03:45:40;;;;;;;11.80;6.47;;;14.50;99.90;;;;;;5055597;28;20562;-59
2022/05/18 03:48:07;;;;;;;13.52;7.00;;;14.50;99.90;;;;;;5055926;28;20170;-60
2022/05/18 03:50:36;;;;;;;10.15;6.97;;;14.50;99.90;;;;;;5055819;28;21885;-60
2022/05/18 03:53:03;;;;;;;10.00;6.40;;;14.40;99.90;;;;;;5056359;28;20055;-60
2022/05/18 03:55:30;;;;;;;10.52;6.72;;;14.30;99.90;;;;;;5056087;28;20234;-60
2022/05/18 03:57:56;;;;;;;10.05;6.95;;;14.80;99.90;;;;;;5017087;28;20570;-59
2022/05/18 04:00:22;;;;;;;9.90;6.50;;;14.40;99.90;;;;;;5055265;28;20040;-60
2022/05/18 04:02:48;;;;;;;10.70;7.25;;;14.40;99.90;;;;;;5056305;28;20114;-60
2022/05/18 04:05:16;;;;;;;10.98;7.07;;;16.00;99.90;;;;;;5053301;28;20143;-60
2022/05/18 04:07:42;;;;;;;11.70;6.75;;;14.30;99.90;;;;;;5053782;28;20090;-60
2022/05/18 04:10:08;;;;;;;13.43;6.97;;;15.40;99.90;;;;;;5055258;28;20493;-60
2022/05/18 04:12:34;;;;;;;10.27;6.65;;;14.30;99.90;;;;;;5054849;28;20121;-60
2022/05/18 04:15:01;;;;;;;10.93;7.82;;;14.80;99.90;;;;;;5053938;28;20040;-60
2022/05/18 04:17:26;;;;;;;12.02;6.97;;;14.50;99.90;;;;;;5053933;28;20590;-60
2022/05/18 04:19:53;;;;;;;12.60;7.00;;;14.60;99.90;;;;;;5055324;28;20033;-60
2022/05/18 04:22:20;;;;;;;9.70;6.28;;;14.50;99.90;;;;;;5053865;28;20044;-59
2022/05/18 04:24:46;;;;;;;11.93;6.72;;;16.00;99.90;;;;;;5055193;28;20041;-60
2022/05/18 04:27:14;;;;;;;12.43;6.95;;;14.60;99.90;;;;;;5053296;28;20040;-60
2022/05/18 04:29:39;;;;;;;11.35;7.18;;;14.70;99.90;;;;;;5053561;28;20497;-60
2022/05/18 04:32:06;;;;;;;11.75;7.00;;;15.00;99.90;;;;;;5054021;28;20056;-60
2022/05/18 04:34:32;;;;;;;10.77;6.90;;;14.80;99.90;;;;;;5054134;28;20041;-60
2022/05/18 04:36:57;;;;;;;11.15;6.90;;;14.90;99.90;;;;;;5053886;28;20054;-60
2022/05/18 04:39:23;;;;;;;9.52;6.60;;;16.70;99.90;;;;;;5054394;28;20095;-59
2022/05/18 04:41:49;;;;;;;8.95;6.43;;;16.80;99.90;;;;;;5053760;28;20418;-60
2022/05/18 04:44:15;;;;;;;11.10;6.25;;;17.30;99.90;;;;;;5053007;28;20044;-60
2022/05/18 04:46:41;;;;;;;17.73;6.80;;;15.00;99.90;;;;;;5054336;28;20040;-59
2022/05/18 04:49:09;;;;;;;10.85;6.85;;;17.50;99.90;;;;;;5053952;28;20041;-59
2022/05/18 04:51:35;;;;;;;11.85;7.28;;;17.00;99.90;;;;;;5054084;28;20280;-59
2022/05/18 04:54:01;;;;;;;10.93;6.57;;;15.40;99.90;;;;;;5054692;28;20094;-59
2022/05/18 04:56:29;;;;;;;14.50;7.30;;;15.70;99.90;;;;;;5054376;28;20493;-59
2022/05/18 04:58:55;;;;;;;11.35;7.03;;;16.90;99.90;;;;;;5054226;28;20349;-59
2022/05/18 05:01:20;;;;;;;11.50;6.57;;;17.30;99.90;;;;;;5051876;28;20036;-59
2022/05/18 05:03:48;;;;;;;18.02;7.25;;;16.30;99.90;;;;;;5052488;28;20044;-59
2022/05/18 05:06:14;;;;;;;11.68;6.18;;;15.60;99.90;;;;;;5052287;28;20131;-60
2022/05/18 05:08:40;;;;;;;12.48;7.22;;;16.10;99.90;;;;;;5053649;28;20040;-60
2022/05/18 05:11:06;;;;;;;12.50;6.78;;;16.00;99.90;;;;;;5052022;28;20040;-60
2022/05/18 05:13:35;;;;;;;11.40;6.78;;;16.10;99.90;;;;;;5051287;28;20041;-60
2022/05/18 05:16:04;;;;;;;9.23;6.35;;;16.10;99.90;;;;;;5053045;28;20048;-60
2022/05/18 05:18:31;;;;;;;11.93;7.65;;;16.30;99.90;;;;;;5051818;28;20037;-60
2022/05/18 05:20:58;;;;;;;12.77;7.88;;;16.40;99.90;;;;;;5052466;28;20455;-60
2022/05/18 05:23:24;;;;;;;12.10;7.40;;;16.50;99.90;;;;;;5053372;28;20409;-60
2022/05/18 05:25:54;;;;;;;9.80;7.55;;;16.60;99.90;;;;;;5054965;28;20049;-59
2022/05/18 05:28:20;;;;;;;11.52;7.47;;;16.60;99.90;;;;;;5051115;28;20174;-59
2022/05/18 05:30:46;;;;;;;16.40;8.15;;;16.70;99.90;;;;;;5052120;28;20093;-59
2022/05/18 05:33:12;;;;;;;13.27;7.50;;;17.20;99.90;;;;;;5050326;28;20040;-59
2022/05/18 05:35:42;;;;;;;10.30;7.90;;;16.70;99.90;;;;;;5050896;28;20044;-61
2022/05/18 05:38:09;;;;;;;10.10;8.13;;;15.30;99.90;;;;;;5050294;28;20109;-59
2022/05/18 05:40:36;;;;;;;12.57;7.95;;;17.10;99.90;;;;;;5050751;28;20044;-60
2022/05/18 05:43:10;;;;;;;13.38;7.93;;;19.60;99.90;;;;;;5052300;28;20040;-60
2022/05/18 05:45:36;;;;;;;12.65;8.15;;;17.50;99.90;;;;;;5051206;28;20795;-60
2022/05/18 05:48:07;;;;;;;12.90;8.32;;;17.70;99.90;;;;;;5053153;28;20190;-60
2022/05/18 05:50:33;;;;;;;13.55;8.48;;;17.70;99.90;;;;;;5053200;28;20509;-60
2022/05/18 05:53:00;;;;;;;16.88;8.55;;;17.90;99.90;;;;;;5051562;28;20279;-60
2022/05/18 05:55:26;;;;;;;10.93;7.97;;;18.10;99.90;;;;;;5052946;28;20044;-60
2022/05/18 05:57:56;;;;;;;13.40;8.48;;;18.30;99.90;;;;;;5051854;28;20505;-60
2022/05/18 06:00:23;;;;;;;13.57;8.95;;;18.40;99.90;;;;;;5052168;28;20075;-60
2022/05/18 06:02:50;;;;;;;15.32;9.18;;;18.50;99.90;;;;;;5052425;28;20048;-60
2022/05/18 06:05:17;;;;;;;12.32;8.80;;;18.60;99.90;;;;;;5050394;28;20700;-60
2022/05/18 06:07:43;;;;;;;15.23;9.07;;;18.40;99.90;;;;;;5052058;28;20455;-59
2022/05/18 06:10:09;;;;;;;10.52;8.10;;;18.50;99.90;;;;;;5051088;28;20546;-60
2022/05/18 06:12:36;;;;;;;14.95;9.63;;;18.40;99.90;;;;;;5052881;28;20106;-60
2022/05/18 06:15:05;;;;;;;14.55;10.05;;;20.50;99.90;;;;;;5053857;28;20048;-60
2022/05/18 06:17:30;;;;;;;11.85;9.15;;;18.60;99.90;;;;;;5052708;28;20041;-60
2022/05/18 06:19:56;;;;;;;15.95;9.45;;;18.90;99.90;;;;;;5051390;28;20047;-60
2022/05/18 06:22:22;;;;;;;16.58;10.13;;;19.10;99.90;;;;;;5052866;28;20522;-60
2022/05/18 06:24:51;;;;;;;14.15;9.35;;;18.10;99.90;;;;;;5052741;28;20048;-60
2022/05/18 06:27:18;;;;;;;12.38;9.23;;;19.60;99.90;;;;;;5050644;28;20083;-60
2022/05/18 06:29:44;;;;;;;12.65;9.02;;;20.00;99.90;;;;;;5049774;28;20279;-60
2022/05/18 06:32:10;;;;;;;13.68;9.35;;;19.30;99.90;;;;;;5050928;28;20044;-60
2022/05/18 06:34:36;;;;;;;12.00;9.40;;;20.20;99.90;;;;;;5051720;28;20129;-59
2022/05/18 06:37:03;;;;;;;16.48;8.55;;;18.90;99.90;;;;;;5050570;28;20618;-59
2022/05/18 06:39:31;;;;;;;14.27;10.02;;;20.70;99.90;;;;;;5051245;28;20040;-60
2022/05/18 06:41:58;;;;;;;13.95;9.15;;;20.80;99.90;;;;;;5050570;28;20504;-60
2022/05/18 06:44:25;;;;;;;19.42;10.15;;;20.70;99.90;;;;;;5050342;28;20507;-60
2022/05/18 06:46:51;;;;;;;18.05;10.02;;;20.90;99.90;;;;;;5055988;28;20114;-59
2022/05/18 06:49:18;;;;;;;16.13;9.90;;;21.40;99.90;;;;;;5055284;28;20044;-60
2022/05/18 06:51:46;;;;;;;15.68;10.55;;;21.40;99.90;;;;;;5055342;28;20139;-60
2022/05/18 06:54:14;;;;;;;14.50;9.98;;;22.10;99.90;;;;;;5056453;28;20177;-60
2022/05/18 06:56:42;;;;;;;17.05;10.20;;;22.90;99.90;;;;;;5057393;28;20074;-61
2022/05/18 06:59:11;;;;;;;13.65;9.93;;;23.70;99.90;;;;;;5056937;28;20029;-60
2022/05/18 07:01:37;;;;;;;16.73;10.25;;;24.90;99.90;;;;;;5055369;28;20033;-62
2022/05/18 07:04:03;;;;;;;17.20;10.43;;;25.40;99.90;;;;;;5056498;28;20041;-62
2022/05/18 07:06:35;;;;;;;12.20;9.25;;;26.40;99.90;;;;;;5056454;28;20040;-61
2022/05/18 07:09:03;;;;;;;15.38;9.73;;;26.80;99.90;;;;;;5055153;28;20044;-61
2022/05/18 07:11:29;;;;;;;15.70;9.15;;;27.40;99.90;;;;;;5056940;28;20060;-61
2022/05/18 07:13:56;;;;;;;13.13;9.10;;;27.80;99.90;;;;;;5056686;28;20122;-61
2022/05/18 07:16:26;;;;;;;13.57;9.27;;;28.50;99.90;;;;;;5055687;28;20045;-61
2022/05/18 07:18:53;;;;;;;11.60;8.13;;;28.90;99.90;;;;;;5056292;28;20044;-61
2022/05/18 07:21:19;;;;;;;95.30;27.50;;;28.50;99.90;;;;;;5055505;28;20029;-61
2022/05/18 07:23:46;;;;;;;1789.28;764.08;;;29.10;99.90;;;;;;5054880;28;20041;-61
2022/05/18 07:26:13;;;;;;;691.92;628.25;;;28.70;99.90;;;;;;5054770;28;20041;-62
2022/05/18 07:28:39;;;;;;;716.53;654.22;;;29.80;99.90;;;;;;5054299;28;20036;-61
2022/05/18 07:31:08;;;;;;;690.92;506.98;;;29.70;99.90;;;;;;5055329;28;20068;-61
2022/05/18 07:33:34;;;;;;;515.95;346.20;;;30.10;99.90;;;;;;5055102;28;20040;-61
2022/05/18 07:36:00;;;;;;;85.30;52.83;;;30.00;99.90;;;;;;5054702;28;20051;-61
2022/05/18 07:38:29;;;;;;;133.63;78.53;;;30.20;99.90;;;;;;5054811;28;20049;-61
2022/05/18 07:40:55;;;;;;;11.82;6.55;;;30.30;99.90;;;;;;5054111;28;20043;-61
2022/05/18 07:43:21;;;;;;;8.30;5.93;;;30.00;99.90;;;;;;5055418;28;20036;-61
2022/05/18 07:45:50;;;;;;;16.30;5.55;;;30.60;99.90;;;;;;5056426;28;20036;-61
2022/05/18 07:48:18;;;;;;;10.55;5.78;;;31.10;99.90;;;;;;5054162;28;20047;-61
2022/05/18 07:50:44;;;;;;;10.32;6.07;;;31.10;99.90;;;;;;5054962;28;20043;-61
2022/05/18 07:53:10;;;;;;;8.82;5.50;;;31.00;99.90;;;;;;5054576;28;20040;-61
2022/05/18 07:55:37;;;;;;;11.63;5.30;;;30.50;99.90;;;;;;5055059;28;20033;-61
2022/05/18 07:58:09;;;;;;;8.98;5.38;;;30.70;99.90;;;;;;5053323;28;20037;-61
2022/05/18 08:00:35;;;;;;;10.27;5.03;;;30.80;99.90;;;;;;5055481;28;20154;-61
2022/05/18 08:03:05;;;;;;;9.50;5.20;;;30.80;99.90;;;;;;5054250;28;20123;-61
2022/05/18 08:05:31;;;;;;;12.07;5.80;;;30.60;98.80;;;;;;5055197;28;20398;-61
2022/05/18 08:08:04;;;;;;;11.80;5.13;;;30.20;99.00;;;;;;5055155;28;20404;-61
2022/05/18 08:16:00;;;;;;;10.85;4.63;;;30.10;98.20;;;;;;5055538;28;20365;-61
2022/05/18 08:18:26;;;;;;;10.23;4.32;;;29.40;99.50;;;;;;5056892;28;20501;-61
2022/05/18 08:20:51;;;;;;;6.57;4.53;;;29.10;98.90;;;;;;5055582;28;20160;-61
2022/05/18 08:23:17;;;;;;;8.07;4.80;;;28.30;98.40;;;;;;5056066;28;21259;-60
2022/05/18 08:25:46;;;;;;;8.68;5.20;;;28.30;99.40;;;;;;5055728;28;20033;-61
2022/05/18 08:28:12;;;;;;;10.10;5.05;;;28.40;99.60;;;;;;5054813;28;20147;-61
2022/05/18 08:30:39;;;;;;;8.45;4.72;;;28.20;99.20;;;;;;5055257;28;20052;-61
2022/05/18 08:33:05;;;;;;;11.90;4.93;;;28.70;99.40;;;;;;5053446;28;20131;-61
2022/05/18 08:35:31;;;;;;;9.98;4.32;;;28.80;99.10;;;;;;5055519;28;20040;-61
2022/05/18 08:37:59;;;;;;;11.00;5.10;;;29.00;99.60;;;;;;5055524;28;20098;-61
2022/05/18 08:40:37;;;;;;;11.55;5.82;;;28.60;99.10;;;;;;5054051;28;20121;-61
2022/05/18 08:43:06;;;;;;;9.10;5.25;;;28.10;99.30;;;;;;5054645;28;20044;-61
2022/05/18 08:45:36;;;;;;;13.60;5.82;;;27.80;99.90;;;;;;5055665;28;20066;-61
2022/05/18 08:48:23;;;;;;;10.82;6.20;;;27.20;99.90;;;;;;5054492;28;20692;-61
2022/05/18 08:50:52;;;;;;;8.93;5.85;;;26.90;99.90;;;;;;5052654;28;20090;-62
2022/05/18 08:53:38;;;;;;;11.68;5.95;;;27.50;99.90;;;;;;5052902;28;20043;-61
2022/05/18 08:56:27;;;;;;;8.50;5.35;;;26.50;99.90;;;;;;5054357;28;20052;-61
2022/05/18 08:58:54;;;;;;;13.48;6.20;;;26.20;99.90;;;;;;5054449;28;20036;-62
2022/05/18 09:01:36;;;;;;;17.50;6.13;;;26.50;99.90;;;;;;5054099;28;20051;-61
2022/05/18 09:04:06;;;;;;;51.97;6.07;;;26.90;99.90;;;;;;5052823;28;20113;-61
2022/05/18 09:06:48;;;;;;;11.48;5.88;;;27.30;99.90;;;;;;5051902;28;20068;-61
2022/05/18 09:12:11;;;;;;;14.02;5.45;;;28.30;99.90;;;;;;5052718;28;20134;-61
2022/05/18 09:14:38;;;;;;;10.23;6.10;;;28.40;99.70;;;;;;5052005;28;20084;-61
2022/05/18 09:17:26;;;;;;;12.40;5.95;;;28.30;99.50;;;;;;5053749;28;20044;-61
2022/05/18 09:20:05;;;;;;;13.63;5.93;;;28.60;99.40;;;;;;5054480;28;20111;-60
2022/05/18 09:23:06;;;;;;;9.98;6.70;;;28.50;99.90;;;;;;5053418;28;20530;-61
2022/05/18 09:25:56;;;;;;;10.97;7.57;;;28.70;99.90;;;;;;5051181;28;20494;-61
2022/05/18 09:28:49;;;;;;;15.80;6.55;;;27.40;99.90;;;;;;5050317;28;20667;-61
2022/05/18 09:31:33;;;;;;;16.63;7.47;;;28.00;99.90;;;;;;5049648;28;20049;-61
2022/05/18 09:34:14;;;;;;;14.27;7.55;;;28.00;99.90;;;;;;5050179;28;20611;-61
2022/05/18 09:37:10;;;;;;;16.23;9.18;;;27.70;99.90;;;;;;5049794;28;20056;-60
2022/05/18 09:39:48;;;;;;;13.57;8.55;;;27.80;99.90;;;;;;5052652;28;20056;-60
2022/05/18 09:42:18;;;;;;;100.65;59.58;;;27.90;99.90;;;;;;5050884;28;20720;-60
2022/05/18 09:45:08;;;;;;;154.15;93.57;;;28.20;99.90;;;;;;5051752;28;20569;-60
2022/05/18 09:47:43;;;;;;;353.17;252.43;;;28.20;99.90;;;;;;5051823;28;20074;-60
2022/05/18 09:50:09;;;;;;;780.58;680.85;;;27.80;99.90;;;;;;5050949;28;20057;-61
2022/05/18 09:52:38;;;;;;;755.03;678.28;;;27.70;99.90;;;;;;5051601;28;20369;-61
2022/05/18 09:55:08;;;;;;;742.22;664.45;;;27.80;99.90;;;;;;5052294;28;20056;-61
2022/05/18 09:58:03;;;;;;;739.03;675.67;;;27.80;99.90;;;;;;5051772;28;20671;-60
2022/05/18 10:00:32;;;;;;;770.17;699.83;;;27.90;99.90;;;;;;4991614;28;20462;-60
2022/05/18 10:08:53;;;;;;;1073.13;898.30;;;27.50;99.90;;;;;;5009222;28;20115;-61
2022/05/18 10:11:28;;;;;;;1201.60;905.15;;;27.90;99.90;;;;;;5009862;28;20057;-60
2022/05/18 10:14:02;;;;;;;1600.28;872.83;;;28.00;99.90;;;;;;5009161;28;20049;-60
2022/05/18 10:16:36;;;;;;;1303.15;913.03;;;28.10;99.90;;;;;;4993720;28;20065;-60
2022/05/18 10:19:03;;;;;;;1665.00;847.53;;;28.10;99.90;;;;;;5010114;28;20077;-61
2022/05/18 10:21:39;;;;;;;1342.65;775.80;;;28.30;99.90;;;;;;5010649;28;20092;-60
2022/05/18 10:24:22;;;;;;;1339.65;876.63;;;28.30;99.90;;;;;;5010380;28;20061;-60
2022/05/18 10:27:18;;;;;;;1245.05;735.40;;;28.50;99.90;;;;;;5010803;28;20811;-60
2022/05/18 10:30:00;;;;;;;1275.28;807.90;;;28.30;99.90;;;;;;5011238;28;20092;-61
2022/05/18 10:32:31;;;;;;;406.67;220.02;;;28.30;99.90;;;;;;5010621;28;20185;-61
2022/05/18 10:35:00;;;;;;;935.78;440.15;;;28.50;99.90;;;;;;5011285;28;20132;-60
2022/05/18 10:37:37;;;;;;;430.52;242.73;;;28.70;99.90;;;;;;5033589;28;20060;-60
2022/05/18 10:40:21;;;;;;;899.17;562.50;;;28.80;99.90;;;;;;5053913;28;20064;-60
2022/05/18 10:42:53;;;;;;;99.07;71.80;;;28.80;99.90;;;;;;5053305;28;20036;-60
2022/05/18 10:45:39;;;;;;;58.88;46.78;;;28.70;99.90;;;;;;5047247;28;20293;-60
2022/05/18 10:48:27;;;;;;;22.30;16.88;;;28.60;99.90;;;;;;5054431;28;20087;-60
2022/05/18 10:51:11;;;;;;;21.10;14.57;;;28.30;99.90;;;;;;5052792;28;20032;-60
2022/05/18 10:53:43;;;;;;;12.50;10.15;;;28.80;99.90;;;;;;5054159;28;20041;-61
2022/05/18 10:56:25;;;;;;;12.65;10.15;;;28.70;99.90;;;;;;5055255;28;20638;-60
2022/05/18 10:59:14;;;;;;;17.98;11.13;;;28.80;99.90;;;;;;5053765;28;20064;-59
2022/05/18 11:01:48;;;;;;;18.25;10.52;;;28.80;99.90;;;;;;5051757;28;20052;-60
2022/05/18 11:04:29;;;;;;;15.68;10.05;;;29.10;99.90;;;;;;5052293;28;20047;-60
2022/05/18 11:06:57;;;;;;;16.67;10.77;;;28.70;99.90;;;;;;5053781;28;20053;-60
2022/05/18 11:09:29;;;;;;;16.20;10.05;;;28.90;99.90;;;;;;5051489;28;20036;-60
2022/05/18 11:12:05;;;;;;;16.02;10.45;;;28.90;99.90;;;;;;5053523;28;20201;-60
2022/05/18 11:14:45;;;;;;;14.13;9.40;;;28.60;99.90;;;;;;5054007;28;20048;-60
2022/05/18 11:17:48;;;;;;;12.32;8.60;;;28.60;99.90;;;;;;5052338;28;20063;-60
2022/05/18 11:20:49;;;;;;;13.10;8.70;;;28.80;99.90;;;;;;5051904;28;20028;-60
2022/05/18 11:23:34;;;;;;;17.60;8.20;;;29.10;99.90;;;;;;5049676;28;20520;-60
2022/05/18 11:26:17;;;;;;;18.08;8.48;;;28.90;99.90;;;;;;5047964;28;20040;-60
2022/05/18 11:29:17;;;;;;;19.75;9.50;;;29.10;99.90;;;;;;5048716;28;20082;-59
2022/05/18 11:32:15;;;;;;;21.17;9.70;;;28.90;99.90;;;;;;5036043;28;20045;-60
2022/05/18 11:35:02;;;;;;;18.10;8.40;;;29.30;99.90;;;;;;5052914;28;20057;-60
2022/05/18 11:37:30;;;;;;;27.67;7.75;;;29.10;99.90;;;;;;5051527;28;20291;-60
2022/05/18 11:40:07;;;;;;;11.55;7.57;;;29.00;99.90;;;;;;5053943;28;20064;-60
2022/05/18 11:43:00;;;;;;;14.75;8.40;;;29.20;99.90;;;;;;5052939;28;20313;-59
2022/05/18 11:45:52;;;;;;;15.05;8.57;;;29.20;99.90;;;;;;5051847;28;20634;-60
2022/05/18 11:48:55;;;;;;;19.42;8.88;;;29.10;99.90;;;;;;5051083;28;20083;-60
2022/05/18 11:51:59;;;;;;;15.15;8.70;;;29.20;99.90;;;;;;5051203;28;20709;-60
2022/05/18 11:54:51;;;;;;;14.77;8.40;;;29.20;99.90;;;;;;5012153;28;20049;-60
2022/05/18 11:57:35;;;;;;;16.65;9.10;;;29.40;99.90;;;;;;5013998;28;20480;-61
2022/05/18 12:00:29;;;;;;;21.67;8.30;;;29.40;99.90;;;;;;5003753;28;20741;-60
2022/05/18 12:03:33;;;;;;;12.00;8.30;;;29.20;99.90;;;;;;4993844;28;20069;-60
2022/05/18 12:06:17;;;;;;;11.63;7.50;;;28.90;99.90;;;;;;4993049;28;20069;-58
2022/05/18 12:08:54;;;;;;;14.07;7.47;;;28.60;99.90;;;;;;4993442;28;20125;-60
2022/05/18 12:11:27;;;;;;;16.05;8.15;;;28.30;99.90;;;;;;4992925;28;20050;-60
2022/05/18 12:14:02;;;;;;;13.40;7.57;;;28.20;99.90;;;;;;4992557;28;20681;-60
2022/05/18 12:16:45;;;;;;;11.95;6.93;;;28.20;99.90;;;;;;4993074;28;20041;-60
2022/05/18 12:19:34;;;;;;;12.00;6.45;;;28.00;99.90;;;;;;4992955;28;20283;-60
2022/05/18 12:22:11;;;;;;;10.50;7.13;;;28.20;99.90;;;;;;4994632;28;20365;-60
2022/05/18 12:24:41;;;;;;;14.38;8.88;;;27.80;99.90;;;;;;5005447;28;20052;-60
2022/05/18 12:27:10;;;;;;;15.80;9.02;;;27.60;99.90;;;;;;5054943;28;20116;-59
2022/05/18 12:29:37;;;;;;;13.40;8.80;;;27.20;99.90;;;;;;5054295;28;20121;-60
2022/05/18 12:32:04;;;;;;;18.25;9.32;;;27.10;99.90;;;;;;5055185;28;20036;-60
2022/05/18 12:34:36;;;;;;;18.30;12.05;;;26.90;99.90;;;;;;5053942;28;20048;-60
2022/05/18 12:37:16;;;;;;;15.52;10.02;;;27.00;99.90;;;;;;5054784;28;20105;-60
2022/05/18 12:39:44;;;;;;;21.02;10.45;;;26.70;99.90;;;;;;5052072;28;20461;-60
2022/05/18 12:42:23;;;;;;;15.02;11.52;;;26.60;99.90;;;;;;5054815;28;20040;-60
2022/05/18 12:44:55;;;;;;;19.73;11.45;;;26.60;99.90;;;;;;5053829;28;20040;-59
2022/05/18 12:47:39;;;;;;;23.15;11.73;;;27.00;99.90;;;;;;5054725;28;20119;-60
2022/05/18 12:50:16;;;;;;;17.52;11.18;;;27.30;99.90;;;;;;5053964;28;20289;-59
2022/05/18 12:53:10;;;;;;;21.65;12.07;;;27.10;99.90;;;;;;5054335;28;20039;-60
2022/05/18 12:55:43;;;;;;;18.15;9.70;;;27.30;99.90;;;;;;5055036;28;20040;-59
2022/05/18 12:58:09;;;;;;;19.17;12.15;;;27.20;99.90;;;;;;5054902;28;20056;-59
2022/05/18 13:00:56;;;;;;;16.13;10.63;;;27.30;99.90;;;;;;5055261;28;20051;-60
2022/05/18 13:04:05;;;;;;;15.95;11.50;;;27.40;99.90;;;;;;5054573;28;20041;-60
2022/05/18 13:06:55;;;;;;;19.15;12.48;;;27.30;99.90;;;;;;5053731;28;20045;-59
2022/05/18 13:09:33;;;;;;;27.23;13.63;;;26.90;99.90;;;;;;5053964;28;20044;-60
2022/05/18 13:12:39;;;;;;;29.55;12.57;;;27.10;99.90;;;;;;5054299;28;20080;-60
2022/05/18 13:15:26;;;;;;;26.38;14.63;;;27.10;99.90;;;;;;5029179;28;20138;-59
2022/05/18 13:17:56;;;;;;;16.13;13.25;;;27.10;99.90;;;;;;5025644;28;20124;-60